sensor_id;sensor_type;location;lat;lon;timestamp;P1;durP1;ratioP1;P2;durP2;ratioP2
2406;SDS011;37709;53.480;9.688;2024-03-08T00:00:11;23.93;;;15.53;;
2406;SDS011;37709;53.480;9.688;2024-03-08T00:02:42;26.17;;;15.70;;
2406;SDS011;37709;53.480;9.688;2024-03-08T00:05:09;21.27;;;14.53;;
2406;SDS011;37709;53.480;9.688;2024-03-08T00:07:37;22.17;;;14.83;;
2406;SDS011;37709;53.480;9.688;2024-03-08T00:10:06;21.33;;;14.43;;
2406;SDS011;37709;53.480;9.688;2024-03-08T00:12:41;24.03;;;15.13;;
2406;SDS011;37709;53.480;9.688;2024-03-08T00:15:10;20.83;;;15.33;;
2406;SDS011;37709;53.480;9.688;2024-03-08T00:17:41;19.87;;;14.47;;
2406;SDS011;37709;53.480;9.688;2024-03-08T00:20:09;19.30;;;14.57;;
2406;SDS011;37709;53.480;9.688;2024-03-08T00:22:37;22.87;;;14.10;;
2406;SDS011;37709;53.480;9.688;2024-03-08T00:25:06;22.10;;;14.73;;
2406;SDS011;37709;53.480;9.688;2024-03-08T00:27:37;21.30;;;14.87;;
2406;SDS011;37709;53.480;9.688;2024-03-08T00:30:05;18.77;;;13.50;;
2406;SDS011;37709;53.480;9.688;2024-03-08T00:32:36;19.57;;;13.93;;
2406;SDS011;37709;53.480;9.688;2024-03-08T00:35:04;22.10;;;13.80;;
2406;SDS011;37709;53.480;9.688;2024-03-08T00:37:37;21.30;;;15.23;;
2406;SDS011;37709;53.480;9.688;2024-03-08T00:40:05;23.43;;;14.70;;
2406;SDS011;37709;53.480;9.688;2024-03-08T00:42:36;22.53;;;14.70;;
2406;SDS011;37709;53.480;9.688;2024-03-08T00:45:05;20.73;;;15.47;;
2406;SDS011;37709;53.480;9.688;2024-03-08T00:47:33;20.80;;;14.00;;
2406;SDS011;37709;53.480;9.688;2024-03-08T00:50:00;23.00;;;13.80;;
2406;SDS011;37709;53.480;9.688;2024-03-08T00:52:31;21.90;;;14.90;;
2406;SDS011;37709;53.480;9.688;2024-03-08T00:54:58;21.13;;;14.53;;
2406;SDS011;37709;53.480;9.688;2024-03-08T00:57:26;22.97;;;14.83;;
2406;SDS011;37709;53.480;9.688;2024-03-08T00:59:54;22.33;;;15.13;;
2406;SDS011;37709;53.480;9.688;2024-03-08T01:02:24;23.93;;;14.23;;
2406;SDS011;37709;53.480;9.688;2024-03-08T01:04:52;20.83;;;15.20;;
2406;SDS011;37709;53.480;9.688;2024-03-08T01:07:20;24.97;;;14.00;;
2406;SDS011;37709;53.480;9.688;2024-03-08T01:09:47;21.37;;;14.70;;
2406;SDS011;37709;53.480;9.688;2024-03-08T01:12:15;23.90;;;15.77;;
2406;SDS011;37709;53.480;9.688;2024-03-08T01:14:42;25.60;;;14.27;;
2406;SDS011;37709;53.480;9.688;2024-03-08T01:17:10;23.10;;;13.93;;
2406;SDS011;37709;53.480;9.688;2024-03-08T01:19:38;19.70;;;14.53;;
2406;SDS011;37709;53.480;9.688;2024-03-08T01:22:06;26.20;;;15.77;;
2406;SDS011;37709;53.480;9.688;2024-03-08T01:24:34;21.50;;;14.90;;
2406;SDS011;37709;53.480;9.688;2024-03-08T01:27:03;20.70;;;14.67;;
2406;SDS011;37709;53.480;9.688;2024-03-08T01:29:30;25.20;;;14.33;;
2406;SDS011;37709;53.480;9.688;2024-03-08T01:31:59;20.30;;;13.27;;
2406;SDS011;37709;53.480;9.688;2024-03-08T01:34:28;21.43;;;14.57;;
2406;SDS011;37709;53.480;9.688;2024-03-08T01:36:56;21.90;;;15.03;;
2406;SDS011;37709;53.480;9.688;2024-03-08T01:39:25;24.93;;;14.63;;
2406;SDS011;37709;53.480;9.688;2024-03-08T01:41:53;22.30;;;14.37;;
2406;SDS011;37709;53.480;9.688;2024-03-08T01:44:21;22.33;;;15.23;;
2406;SDS011;37709;53.480;9.688;2024-03-08T01:46:49;22.83;;;14.40;;
2406;SDS011;37709;53.480;9.688;2024-03-08T01:49:19;21.17;;;15.23;;
2406;SDS011;37709;53.480;9.688;2024-03-08T01:51:48;27.07;;;14.73;;
2406;SDS011;37709;53.480;9.688;2024-03-08T01:54:16;23.40;;;15.60;;
2406;SDS011;37709;53.480;9.688;2024-03-08T01:56:46;21.67;;;13.97;;
2406;SDS011;37709;53.480;9.688;2024-03-08T01:59:13;22.40;;;15.37;;
2406;SDS011;37709;53.480;9.688;2024-03-08T02:01:42;22.37;;;15.07;;
2406;SDS011;37709;53.480;9.688;2024-03-08T02:04:10;22.90;;;14.07;;
2406;SDS011;37709;53.480;9.688;2024-03-08T02:06:38;25.63;;;15.07;;
2406;SDS011;37709;53.480;9.688;2024-03-08T02:09:10;23.07;;;14.90;;
2406;SDS011;37709;53.480;9.688;2024-03-08T02:11:37;23.60;;;14.10;;
2406;SDS011;37709;53.480;9.688;2024-03-08T02:14:07;26.43;;;15.93;;
2406;SDS011;37709;53.480;9.688;2024-03-08T02:16:34;20.80;;;15.00;;
2406;SDS011;37709;53.480;9.688;2024-03-08T02:19:01;25.27;;;15.87;;
2406;SDS011;37709;53.480;9.688;2024-03-08T02:21:28;19.07;;;14.70;;
2406;SDS011;37709;53.480;9.688;2024-03-08T02:23:58;21.20;;;14.60;;
2406;SDS011;37709;53.480;9.688;2024-03-08T02:26:27;21.60;;;15.00;;
2406;SDS011;37709;53.480;9.688;2024-03-08T02:28:54;28.37;;;15.17;;
2406;SDS011;37709;53.480;9.688;2024-03-08T02:31:21;24.40;;;14.60;;
2406;SDS011;37709;53.480;9.688;2024-03-08T02:33:48;28.60;;;15.00;;
2406;SDS011;37709;53.480;9.688;2024-03-08T02:36:16;25.73;;;15.20;;
2406;SDS011;37709;53.480;9.688;2024-03-08T02:38:44;23.73;;;15.20;;
2406;SDS011;37709;53.480;9.688;2024-03-08T02:41:11;24.40;;;14.97;;
2406;SDS011;37709;53.480;9.688;2024-03-08T02:43:39;21.77;;;14.43;;
2406;SDS011;37709;53.480;9.688;2024-03-08T02:46:07;24.33;;;14.17;;
2406;SDS011;37709;53.480;9.688;2024-03-08T02:48:34;21.83;;;14.77;;
2406;SDS011;37709;53.480;9.688;2024-03-08T02:51:02;22.27;;;14.43;;
2406;SDS011;37709;53.480;9.688;2024-03-08T02:53:30;25.43;;;16.40;;
2406;SDS011;37709;53.480;9.688;2024-03-08T02:55:58;23.80;;;14.97;;
2406;SDS011;37709;53.480;9.688;2024-03-08T02:58:26;21.03;;;14.23;;
2406;SDS011;37709;53.480;9.688;2024-03-08T03:00:54;24.63;;;14.47;;
2406;SDS011;37709;53.480;9.688;2024-03-08T03:03:24;25.97;;;15.40;;
2406;SDS011;37709;53.480;9.688;2024-03-08T03:05:52;25.93;;;14.83;;
2406;SDS011;37709;53.480;9.688;2024-03-08T03:08:22;27.00;;;15.17;;
2406;SDS011;37709;53.480;9.688;2024-03-08T03:10:50;24.90;;;15.47;;
2406;SDS011;37709;53.480;9.688;2024-03-08T03:13:18;35.40;;;16.10;;
2406;SDS011;37709;53.480;9.688;2024-03-08T03:15:46;28.67;;;16.07;;
2406;SDS011;37709;53.480;9.688;2024-03-08T03:18:14;22.67;;;15.07;;
2406;SDS011;37709;53.480;9.688;2024-03-08T03:20:42;29.63;;;15.03;;
2406;SDS011;37709;53.480;9.688;2024-03-08T03:23:11;28.20;;;15.40;;
2406;SDS011;37709;53.480;9.688;2024-03-08T03:25:43;27.97;;;14.70;;
2406;SDS011;37709;53.480;9.688;2024-03-08T03:28:12;22.80;;;15.60;;
2406;SDS011;37709;53.480;9.688;2024-03-08T03:30:46;24.83;;;14.60;;
2406;SDS011;37709;53.480;9.688;2024-03-08T03:33:14;23.63;;;15.57;;
2406;SDS011;37709;53.480;9.688;2024-03-08T03:35:43;25.27;;;15.13;;
2406;SDS011;37709;53.480;9.688;2024-03-08T03:38:11;24.37;;;15.57;;
2406;SDS011;37709;53.480;9.688;2024-03-08T03:40:41;28.70;;;15.63;;
2406;SDS011;37709;53.480;9.688;2024-03-08T03:43:08;27.40;;;15.33;;
2406;SDS011;37709;53.480;9.688;2024-03-08T03:45:37;23.83;;;14.27;;
2406;SDS011;37709;53.480;9.688;2024-03-08T03:48:06;28.87;;;15.30;;
2406;SDS011;37709;53.480;9.688;2024-03-08T03:50:37;24.50;;;14.13;;
2406;SDS011;37709;53.480;9.688;2024-03-08T03:53:06;24.57;;;15.80;;
2406;SDS011;37709;53.480;9.688;2024-03-08T03:55:37;23.33;;;15.40;;
2406;SDS011;37709;53.480;9.688;2024-03-08T03:58:07;23.53;;;15.20;;
2406;SDS011;37709;53.480;9.688;2024-03-08T04:00:37;26.33;;;16.10;;
2406;SDS011;37709;53.480;9.688;2024-03-08T04:03:04;26.07;;;15.57;;
2406;SDS011;37709;53.480;9.688;2024-03-08T04:05:32;26.13;;;15.20;;
2406;SDS011;37709;53.480;9.688;2024-03-08T04:08:00;25.37;;;15.87;;
2406;SDS011;37709;53.480;9.688;2024-03-08T04:10:29;29.53;;;15.83;;
2406;SDS011;37709;53.480;9.688;2024-03-08T04:12:57;25.83;;;15.57;;
2406;SDS011;37709;53.480;9.688;2024-03-08T04:15:24;26.90;;;16.33;;
2406;SDS011;37709;53.480;9.688;2024-03-08T04:17:51;25.40;;;17.03;;
2406;SDS011;37709;53.480;9.688;2024-03-08T04:20:19;23.13;;;15.53;;
2406;SDS011;37709;53.480;9.688;2024-03-08T04:22:48;23.53;;;16.00;;
2406;SDS011;37709;53.480;9.688;2024-03-08T04:25:16;25.23;;;16.47;;
2406;SDS011;37709;53.480;9.688;2024-03-08T04:27:43;24.83;;;14.53;;
2406;SDS011;37709;53.480;9.688;2024-03-08T04:30:12;27.77;;;16.03;;
2406;SDS011;37709;53.480;9.688;2024-03-08T04:32:40;29.37;;;17.07;;
2406;SDS011;37709;53.480;9.688;2024-03-08T04:35:11;25.57;;;16.57;;
2406;SDS011;37709;53.480;9.688;2024-03-08T04:37:39;30.17;;;17.10;;
2406;SDS011;37709;53.480;9.688;2024-03-08T04:40:07;24.90;;;17.00;;
2406;SDS011;37709;53.480;9.688;2024-03-08T04:42:35;29.50;;;16.40;;
2406;SDS011;37709;53.480;9.688;2024-03-08T04:45:04;26.40;;;15.90;;
2406;SDS011;37709;53.480;9.688;2024-03-08T04:47:32;26.80;;;17.97;;
2406;SDS011;37709;53.480;9.688;2024-03-08T04:49:59;25.03;;;15.93;;
2406;SDS011;37709;53.480;9.688;2024-03-08T04:52:26;23.20;;;16.03;;
2406;SDS011;37709;53.480;9.688;2024-03-08T04:54:55;20.57;;;14.60;;
2406;SDS011;37709;53.480;9.688;2024-03-08T04:57:23;23.93;;;15.70;;
2406;SDS011;37709;53.480;9.688;2024-03-08T04:59:53;30.67;;;16.10;;
2406;SDS011;37709;53.480;9.688;2024-03-08T05:02:21;22.27;;;13.60;;
2406;SDS011;37709;53.480;9.688;2024-03-08T05:04:49;24.23;;;16.73;;
2406;SDS011;37709;53.480;9.688;2024-03-08T05:07:16;25.10;;;15.30;;
2406;SDS011;37709;53.480;9.688;2024-03-08T05:09:44;24.30;;;17.00;;
2406;SDS011;37709;53.480;9.688;2024-03-08T05:12:19;24.47;;;15.73;;
2406;SDS011;37709;53.480;9.688;2024-03-08T05:14:46;27.23;;;15.47;;
2406;SDS011;37709;53.480;9.688;2024-03-08T05:17:17;22.43;;;15.27;;
2406;SDS011;37709;53.480;9.688;2024-03-08T05:19:46;28.93;;;16.40;;
2406;SDS011;37709;53.480;9.688;2024-03-08T05:22:13;30.23;;;16.37;;
2406;SDS011;37709;53.480;9.688;2024-03-08T05:24:40;22.87;;;15.57;;
2406;SDS011;37709;53.480;9.688;2024-03-08T05:27:09;22.77;;;15.40;;
2406;SDS011;37709;53.480;9.688;2024-03-08T05:29:36;26.40;;;16.73;;
2406;SDS011;37709;53.480;9.688;2024-03-08T05:32:04;27.67;;;16.37;;
2406;SDS011;37709;53.480;9.688;2024-03-08T05:34:32;22.00;;;13.60;;
2406;SDS011;37709;53.480;9.688;2024-03-08T05:36:59;24.23;;;15.67;;
2406;SDS011;37709;53.480;9.688;2024-03-08T05:39:27;28.37;;;15.50;;
2406;SDS011;37709;53.480;9.688;2024-03-08T05:41:55;26.90;;;15.23;;
2406;SDS011;37709;53.480;9.688;2024-03-08T05:44:27;24.63;;;15.97;;
2406;SDS011;37709;53.480;9.688;2024-03-08T05:46:57;23.90;;;15.47;;
2406;SDS011;37709;53.480;9.688;2024-03-08T05:49:24;25.30;;;15.70;;
2406;SDS011;37709;53.480;9.688;2024-03-08T05:51:53;26.93;;;16.43;;
2406;SDS011;37709;53.480;9.688;2024-03-08T05:54:21;23.97;;;15.83;;
2406;SDS011;37709;53.480;9.688;2024-03-08T05:56:52;24.77;;;15.67;;
2406;SDS011;37709;53.480;9.688;2024-03-08T05:59:21;25.53;;;15.60;;
2406;SDS011;37709;53.480;9.688;2024-03-08T06:01:50;27.87;;;16.03;;
2406;SDS011;37709;53.480;9.688;2024-03-08T06:04:18;26.63;;;16.20;;
2406;SDS011;37709;53.480;9.688;2024-03-08T06:06:46;26.97;;;15.53;;
2406;SDS011;37709;53.480;9.688;2024-03-08T06:09:18;23.40;;;15.00;;
2406;SDS011;37709;53.480;9.688;2024-03-08T06:11:52;25.47;;;15.40;;
2406;SDS011;37709;53.480;9.688;2024-03-08T06:14:21;24.57;;;16.10;;
2406;SDS011;37709;53.480;9.688;2024-03-08T06:16:50;27.50;;;15.40;;
2406;SDS011;37709;53.480;9.688;2024-03-08T06:19:17;24.77;;;15.23;;
2406;SDS011;37709;53.480;9.688;2024-03-08T06:21:45;31.00;;;17.57;;
2406;SDS011;37709;53.480;9.688;2024-03-08T06:24:16;22.67;;;15.20;;
2406;SDS011;37709;53.480;9.688;2024-03-08T06:26:43;27.23;;;15.57;;
2406;SDS011;37709;53.480;9.688;2024-03-08T06:29:11;23.77;;;14.67;;
2406;SDS011;37709;53.480;9.688;2024-03-08T06:31:40;25.10;;;16.77;;
2406;SDS011;37709;53.480;9.688;2024-03-08T06:34:07;27.63;;;16.60;;
2406;SDS011;37709;53.480;9.688;2024-03-08T06:36:36;24.30;;;16.00;;
2406;SDS011;37709;53.480;9.688;2024-03-08T06:39:05;23.83;;;14.77;;
2406;SDS011;37709;53.480;9.688;2024-03-08T06:41:37;27.90;;;15.60;;
2406;SDS011;37709;53.480;9.688;2024-03-08T06:46:58;21.93;;;14.37;;
2406;SDS011;37709;53.480;9.688;2024-03-08T06:49:26;25.47;;;16.20;;
2406;SDS011;37709;53.480;9.688;2024-03-08T06:51:54;24.97;;;15.50;;
2406;SDS011;37709;53.480;9.688;2024-03-08T06:54:21;29.40;;;16.00;;
2406;SDS011;37709;53.480;9.688;2024-03-08T06:56:49;24.50;;;16.27;;
2406;SDS011;37709;53.480;9.688;2024-03-08T06:59:16;24.97;;;15.83;;
2406;SDS011;37709;53.480;9.688;2024-03-08T07:01:44;27.77;;;16.37;;
2406;SDS011;37709;53.480;9.688;2024-03-08T07:04:13;27.67;;;16.30;;
2406;SDS011;37709;53.480;9.688;2024-03-08T07:06:40;27.27;;;15.87;;
2406;SDS011;37709;53.480;9.688;2024-03-08T07:09:08;25.00;;;16.47;;
2406;SDS011;37709;53.480;9.688;2024-03-08T07:11:36;28.47;;;16.30;;
2406;SDS011;37709;53.480;9.688;2024-03-08T07:14:08;30.55;;;20.35;;
2406;SDS011;37709;53.480;9.688;2024-03-08T07:16:36;26.43;;;17.13;;
2406;SDS011;37709;53.480;9.688;2024-03-08T07:19:07;30.00;;;17.80;;
2406;SDS011;37709;53.480;9.688;2024-03-08T07:21:35;28.97;;;15.73;;
2406;SDS011;37709;53.480;9.688;2024-03-08T07:24:04;32.10;;;18.67;;
2406;SDS011;37709;53.480;9.688;2024-03-08T07:26:44;25.90;;;16.30;;
2406;SDS011;37709;53.480;9.688;2024-03-08T07:29:16;26.37;;;17.57;;
2406;SDS011;37709;53.480;9.688;2024-03-08T07:31:44;22.23;;;16.27;;
2406;SDS011;37709;53.480;9.688;2024-03-08T07:34:22;25.43;;;16.37;;
2406;SDS011;37709;53.480;9.688;2024-03-08T07:36:50;25.10;;;16.53;;
2406;SDS011;37709;53.480;9.688;2024-03-08T07:39:19;27.13;;;17.40;;
2406;SDS011;37709;53.480;9.688;2024-03-08T07:41:46;27.23;;;17.73;;
2406;SDS011;37709;53.480;9.688;2024-03-08T07:44:15;24.67;;;18.13;;
2406;SDS011;37709;53.480;9.688;2024-03-08T07:46:43;53.33;;;23.53;;
2406;SDS011;37709;53.480;9.688;2024-03-08T07:49:11;28.10;;;17.40;;
2406;SDS011;37709;53.480;9.688;2024-03-08T07:51:39;21.27;;;15.37;;
2406;SDS011;37709;53.480;9.688;2024-03-08T07:54:07;23.23;;;16.60;;
2406;SDS011;37709;53.480;9.688;2024-03-08T07:56:36;21.50;;;16.47;;
2406;SDS011;37709;53.480;9.688;2024-03-08T07:59:04;18.67;;;15.27;;
2406;SDS011;37709;53.480;9.688;2024-03-08T08:01:32;19.20;;;15.93;;
2406;SDS011;37709;53.480;9.688;2024-03-08T08:04:00;20.00;;;15.90;;
2406;SDS011;37709;53.480;9.688;2024-03-08T08:06:29;24.37;;;17.40;;
2406;SDS011;37709;53.480;9.688;2024-03-08T08:09:00;19.20;;;14.23;;
2406;SDS011;37709;53.480;9.688;2024-03-08T08:11:27;18.80;;;15.87;;
2406;SDS011;37709;53.480;9.688;2024-03-08T08:13:55;18.43;;;15.60;;
2406;SDS011;37709;53.480;9.688;2024-03-08T08:16:23;17.43;;;15.43;;
2406;SDS011;37709;53.480;9.688;2024-03-08T08:18:53;18.23;;;15.07;;
2406;SDS011;37709;53.480;9.688;2024-03-08T08:21:22;18.07;;;14.60;;
2406;SDS011;37709;53.480;9.688;2024-03-08T08:23:51;18.53;;;14.20;;
2406;SDS011;37709;53.480;9.688;2024-03-08T08:26:19;17.57;;;14.40;;
2406;SDS011;37709;53.480;9.688;2024-03-08T08:28:48;18.00;;;15.03;;
2406;SDS011;37709;53.480;9.688;2024-03-08T08:31:16;19.53;;;15.17;;
2406;SDS011;37709;53.480;9.688;2024-03-08T08:33:44;17.03;;;14.40;;
2406;SDS011;37709;53.480;9.688;2024-03-08T08:36:21;17.10;;;14.17;;
2406;SDS011;37709;53.480;9.688;2024-03-08T08:38:49;18.10;;;16.20;;
2406;SDS011;37709;53.480;9.688;2024-03-08T08:41:17;19.23;;;17.13;;
2406;SDS011;37709;53.480;9.688;2024-03-08T08:43:45;17.33;;;15.33;;
2406;SDS011;37709;53.480;9.688;2024-03-08T08:46:28;18.42;;;16.00;;
2406;SDS011;37709;53.480;9.688;2024-03-08T08:48:56;16.90;;;15.10;;
2406;SDS011;37709;53.480;9.688;2024-03-08T08:51:25;18.00;;;16.10;;
2406;SDS011;37709;53.480;9.688;2024-03-08T08:53:54;15.73;;;14.03;;
2406;SDS011;37709;53.480;9.688;2024-03-08T08:56:22;18.00;;;15.13;;
2406;SDS011;37709;53.480;9.688;2024-03-08T08:58:54;17.23;;;15.30;;
2406;SDS011;37709;53.480;9.688;2024-03-08T09:01:22;16.73;;;14.80;;
2406;SDS011;37709;53.480;9.688;2024-03-08T09:03:53;16.70;;;14.50;;
2406;SDS011;37709;53.480;9.688;2024-03-08T09:06:20;16.20;;;14.50;;
2406;SDS011;37709;53.480;9.688;2024-03-08T09:08:48;16.80;;;14.43;;
2406;SDS011;37709;53.480;9.688;2024-03-08T09:11:16;17.40;;;14.73;;
2406;SDS011;37709;53.480;9.688;2024-03-08T09:13:44;18.23;;;15.00;;
2406;SDS011;37709;53.480;9.688;2024-03-08T09:16:13;16.70;;;14.77;;
2406;SDS011;37709;53.480;9.688;2024-03-08T09:21:37;19.20;;;15.77;;
2406;SDS011;37709;53.480;9.688;2024-03-08T09:24:07;16.23;;;14.53;;
2406;SDS011;37709;53.480;9.688;2024-03-08T09:26:35;17.50;;;15.40;;
2406;SDS011;37709;53.480;9.688;2024-03-08T09:29:05;19.37;;;15.07;;
2406;SDS011;37709;53.480;9.688;2024-03-08T09:31:36;19.23;;;14.40;;
2406;SDS011;37709;53.480;9.688;2024-03-08T09:34:05;16.00;;;14.40;;
2406;SDS011;37709;53.480;9.688;2024-03-08T09:36:35;17.47;;;15.67;;
2406;SDS011;37709;53.480;9.688;2024-03-08T09:39:03;16.80;;;15.17;;
2406;SDS011;37709;53.480;9.688;2024-03-08T09:41:36;18.03;;;16.13;;
2406;SDS011;37709;53.480;9.688;2024-03-08T09:44:05;19.67;;;16.70;;
2406;SDS011;37709;53.480;9.688;2024-03-08T09:46:35;17.43;;;15.70;;
2406;SDS011;37709;53.480;9.688;2024-03-08T09:49:03;17.60;;;15.90;;
2406;SDS011;37709;53.480;9.688;2024-03-08T09:51:33;18.57;;;16.67;;
2406;SDS011;37709;53.480;9.688;2024-03-08T09:54:05;18.67;;;16.77;;
2406;SDS011;37709;53.480;9.688;2024-03-08T09:56:43;17.70;;;15.90;;
2406;SDS011;37709;53.480;9.688;2024-03-08T09:59:11;18.63;;;16.27;;
2406;SDS011;37709;53.480;9.688;2024-03-08T10:02:00;18.70;;;16.03;;
2406;SDS011;37709;53.480;9.688;2024-03-08T10:04:30;17.43;;;15.73;;
2406;SDS011;37709;53.480;9.688;2024-03-08T10:07:00;18.33;;;16.43;;
2406;SDS011;37709;53.480;9.688;2024-03-08T10:09:28;19.30;;;16.40;;
2406;SDS011;37709;53.480;9.688;2024-03-08T10:11:57;18.13;;;16.27;;
2406;SDS011;37709;53.480;9.688;2024-03-08T10:14:25;18.57;;;16.73;;
2406;SDS011;37709;53.480;9.688;2024-03-08T10:16:56;17.87;;;16.07;;
2406;SDS011;37709;53.480;9.688;2024-03-08T10:19:27;17.90;;;16.00;;
2406;SDS011;37709;53.480;9.688;2024-03-08T10:21:58;18.37;;;16.67;;
2406;SDS011;37709;53.480;9.688;2024-03-08T10:24:29;16.07;;;14.40;;
2406;SDS011;37709;53.480;9.688;2024-03-08T10:27:00;17.63;;;15.83;;
2406;SDS011;37709;53.480;9.688;2024-03-08T10:29:31;17.53;;;15.83;;
2406;SDS011;37709;53.480;9.688;2024-03-08T10:31:59;16.63;;;14.90;;
2406;SDS011;37709;53.480;9.688;2024-03-08T10:34:27;15.20;;;13.63;;
2406;SDS011;37709;53.480;9.688;2024-03-08T10:36:58;15.43;;;13.73;;
2406;SDS011;37709;53.480;9.688;2024-03-08T10:39:34;16.83;;;15.03;;
2406;SDS011;37709;53.480;9.688;2024-03-08T10:42:03;14.77;;;13.20;;
2406;SDS011;37709;53.480;9.688;2024-03-08T10:44:40;14.33;;;12.87;;
2406;SDS011;37709;53.480;9.688;2024-03-08T10:49:45;14.30;;;12.80;;
2406;SDS011;37709;53.480;9.688;2024-03-08T10:52:16;14.57;;;13.07;;
2406;SDS011;37709;53.480;9.688;2024-03-08T10:54:44;12.97;;;11.67;;
2406;SDS011;37709;53.480;9.688;2024-03-08T10:57:12;13.40;;;11.90;;
2406;SDS011;37709;53.480;9.688;2024-03-08T10:59:40;15.30;;;13.37;;
2406;SDS011;37709;53.480;9.688;2024-03-08T11:02:14;14.37;;;12.87;;
2406;SDS011;37709;53.480;9.688;2024-03-08T11:04:45;16.40;;;13.97;;
2406;SDS011;37709;53.480;9.688;2024-03-08T11:07:16;14.27;;;12.07;;
2406;SDS011;37709;53.480;9.688;2024-03-08T11:09:48;14.93;;;12.40;;
2406;SDS011;37709;53.480;9.688;2024-03-08T11:12:22;15.43;;;13.30;;
2406;SDS011;37709;53.480;9.688;2024-03-08T11:15:01;17.93;;;13.50;;
2406;SDS011;37709;53.480;9.688;2024-03-08T11:20:00;15.20;;;12.67;;
2406;SDS011;37709;53.480;9.688;2024-03-08T11:22:32;17.13;;;14.50;;
2406;SDS011;37709;53.480;9.688;2024-03-08T11:25:04;15.60;;;12.40;;
2406;SDS011;37709;53.480;9.688;2024-03-08T11:27:37;15.43;;;13.57;;
2406;SDS011;37709;53.480;9.688;2024-03-08T11:30:06;15.07;;;13.57;;
2406;SDS011;37709;53.480;9.688;2024-03-08T11:32:45;16.27;;;14.50;;
2406;SDS011;37709;53.480;9.688;2024-03-08T11:35:18;14.17;;;12.67;;
2406;SDS011;37709;53.480;9.688;2024-03-08T11:37:46;17.07;;;14.43;;
2406;SDS011;37709;53.480;9.688;2024-03-08T11:40:15;14.27;;;12.87;;
2406;SDS011;37709;53.480;9.688;2024-03-08T11:42:44;14.80;;;13.50;;
2406;SDS011;37709;53.480;9.688;2024-03-08T11:45:14;16.10;;;13.00;;
2406;SDS011;37709;53.480;9.688;2024-03-08T11:47:44;13.37;;;11.97;;
2406;SDS011;37709;53.480;9.688;2024-03-08T11:50:16;14.97;;;13.23;;
2406;SDS011;37709;53.480;9.688;2024-03-08T11:52:45;14.80;;;13.30;;
2406;SDS011;37709;53.480;9.688;2024-03-08T11:55:13;15.60;;;13.80;;
2406;SDS011;37709;53.480;9.688;2024-03-08T11:57:41;14.33;;;12.83;;
2406;SDS011;37709;53.480;9.688;2024-03-08T12:00:19;13.70;;;12.20;;
2406;SDS011;37709;53.480;9.688;2024-03-08T12:03:03;16.13;;;14.30;;
2406;SDS011;37709;53.480;9.688;2024-03-08T12:05:31;13.50;;;11.07;;
2406;SDS011;37709;53.480;9.688;2024-03-08T12:08:02;13.60;;;12.20;;
2406;SDS011;37709;53.480;9.688;2024-03-08T12:10:32;14.80;;;13.30;;
2406;SDS011;37709;53.480;9.688;2024-03-08T12:15:59;13.80;;;12.40;;
2406;SDS011;37709;53.480;9.688;2024-03-08T12:18:28;14.90;;;13.33;;
2406;SDS011;37709;53.480;9.688;2024-03-08T12:23:47;14.90;;;13.40;;
2406;SDS011;37709;53.480;9.688;2024-03-08T12:26:25;14.63;;;13.13;;
2406;SDS011;37709;53.480;9.688;2024-03-08T12:28:53;15.20;;;12.33;;
2406;SDS011;37709;53.480;9.688;2024-03-08T12:31:22;13.73;;;12.13;;
2406;SDS011;37709;53.480;9.688;2024-03-08T12:36:46;15.00;;;12.77;;
2406;SDS011;37709;53.480;9.688;2024-03-08T12:39:17;15.70;;;14.10;;
2406;SDS011;37709;53.480;9.688;2024-03-08T12:41:56;13.93;;;12.63;;
2406;SDS011;37709;53.480;9.688;2024-03-08T12:44:24;14.53;;;13.03;;
2406;SDS011;37709;53.480;9.688;2024-03-08T12:46:53;15.60;;;13.87;;
2406;SDS011;37709;53.480;9.688;2024-03-08T12:49:22;15.20;;;13.37;;
2406;SDS011;37709;53.480;9.688;2024-03-08T12:51:50;15.07;;;12.53;;
2406;SDS011;37709;53.480;9.688;2024-03-08T12:54:20;13.20;;;10.90;;
2406;SDS011;37709;53.480;9.688;2024-03-08T12:56:51;15.87;;;12.87;;
2406;SDS011;37709;53.480;9.688;2024-03-08T12:59:21;14.97;;;13.50;;
2406;SDS011;37709;53.480;9.688;2024-03-08T13:01:51;15.23;;;13.73;;
2406;SDS011;37709;53.480;9.688;2024-03-08T13:04:21;13.20;;;11.80;;
2406;SDS011;37709;53.480;9.688;2024-03-08T13:06:50;13.40;;;12.10;;
2406;SDS011;37709;53.480;9.688;2024-03-08T13:09:22;13.47;;;12.07;;
2406;SDS011;37709;53.480;9.688;2024-03-08T13:11:51;13.63;;;12.00;;
2406;SDS011;37709;53.480;9.688;2024-03-08T13:14:21;14.17;;;11.27;;
2406;SDS011;37709;53.480;9.688;2024-03-08T13:16:49;12.67;;;11.30;;
2406;SDS011;37709;53.480;9.688;2024-03-08T13:19:20;13.13;;;11.03;;
2406;SDS011;37709;53.480;9.688;2024-03-08T13:21:48;13.00;;;11.60;;
2406;SDS011;37709;53.480;9.688;2024-03-08T13:24:16;13.50;;;11.10;;
2406;SDS011;37709;53.480;9.688;2024-03-08T13:26:45;12.23;;;10.93;;
2406;SDS011;37709;53.480;9.688;2024-03-08T13:29:19;12.77;;;11.47;;
2406;SDS011;37709;53.480;9.688;2024-03-08T13:31:48;13.07;;;11.67;;
2406;SDS011;37709;53.480;9.688;2024-03-08T13:34:20;13.07;;;11.77;;
2406;SDS011;37709;53.480;9.688;2024-03-08T13:36:55;11.87;;;10.60;;
2406;SDS011;37709;53.480;9.688;2024-03-08T13:39:27;11.43;;;10.13;;
2406;SDS011;37709;53.480;9.688;2024-03-08T13:41:56;11.87;;;10.33;;
2406;SDS011;37709;53.480;9.688;2024-03-08T13:44:23;12.17;;;10.73;;
2406;SDS011;37709;53.480;9.688;2024-03-08T13:46:52;11.93;;;10.00;;
2406;SDS011;37709;53.480;9.688;2024-03-08T13:49:20;11.23;;;9.97;;
2406;SDS011;37709;53.480;9.688;2024-03-08T13:51:48;12.20;;;10.07;;
2406;SDS011;37709;53.480;9.688;2024-03-08T13:54:18;11.57;;;10.43;;
2406;SDS011;37709;53.480;9.688;2024-03-08T13:56:46;11.70;;;9.70;;
2406;SDS011;37709;53.480;9.688;2024-03-08T13:59:17;10.30;;;9.20;;
2406;SDS011;37709;53.480;9.688;2024-03-08T14:01:45;11.80;;;10.60;;
2406;SDS011;37709;53.480;9.688;2024-03-08T14:04:14;12.93;;;9.97;;
2406;SDS011;37709;53.480;9.688;2024-03-08T14:06:44;13.80;;;10.40;;
2406;SDS011;37709;53.480;9.688;2024-03-08T14:09:12;10.63;;;8.50;;
2406;SDS011;37709;53.480;9.688;2024-03-08T14:11:43;11.97;;;9.47;;
2406;SDS011;37709;53.480;9.688;2024-03-08T14:14:11;10.40;;;8.97;;
2406;SDS011;37709;53.480;9.688;2024-03-08T14:16:40;10.33;;;9.27;;
2406;SDS011;37709;53.480;9.688;2024-03-08T14:19:08;10.60;;;9.47;;
2406;SDS011;37709;53.480;9.688;2024-03-08T14:21:36;10.37;;;9.27;;
2406;SDS011;37709;53.480;9.688;2024-03-08T14:24:06;12.47;;;9.90;;
2406;SDS011;37709;53.480;9.688;2024-03-08T14:26:34;9.60;;;8.60;;
2406;SDS011;37709;53.480;9.688;2024-03-08T14:29:05;11.87;;;10.63;;
2406;SDS011;37709;53.480;9.688;2024-03-08T14:31:33;11.20;;;9.67;;
2406;SDS011;37709;53.480;9.688;2024-03-08T14:34:02;10.93;;;8.20;;
2406;SDS011;37709;53.480;9.688;2024-03-08T14:36:30;11.80;;;10.37;;
2406;SDS011;37709;53.480;9.688;2024-03-08T14:39:00;12.90;;;10.40;;
2406;SDS011;37709;53.480;9.688;2024-03-08T14:41:29;11.70;;;10.00;;
2406;SDS011;37709;53.480;9.688;2024-03-08T14:43:57;11.00;;;9.90;;
2406;SDS011;37709;53.480;9.688;2024-03-08T14:46:27;13.00;;;9.17;;
2406;SDS011;37709;53.480;9.688;2024-03-08T14:48:55;12.30;;;10.40;;
2406;SDS011;37709;53.480;9.688;2024-03-08T14:51:25;10.83;;;9.53;;
2406;SDS011;37709;53.480;9.688;2024-03-08T14:53:56;11.53;;;9.67;;
2406;SDS011;37709;53.480;9.688;2024-03-08T14:56:28;12.17;;;8.60;;
2406;SDS011;37709;53.480;9.688;2024-03-08T14:58:56;12.77;;;9.10;;
2406;SDS011;37709;53.480;9.688;2024-03-08T15:01:26;11.20;;;9.70;;
2406;SDS011;37709;53.480;9.688;2024-03-08T15:03:57;11.10;;;9.87;;
2406;SDS011;37709;53.480;9.688;2024-03-08T15:06:30;14.27;;;10.03;;